CPU2 weather

Kincardine (South Bruce Grey Health Centre Hospital) Heliport
Kincardine, Ontario, Canada

Public forecast

Using degrees Celsius for public forecast. Weather courtesy of forecast.io.

METAR (pilot weather report)

Closest report is Wiarton Airport, 40.2 nm (74.4 km) NNE. Retrieved 2019/07/21 18:00 UTC (51 minutes ago):

CYVV 211800Z 27012KT 15SM FEW030 FEW250 23/16 A2993 RMK CU1CI1 CU TR WND ESTD SLP136 DENSITY ALT 1800FT

TAF (pilot weather forecast)

Closest forecast is Wiarton Airport, 40.2 nm (74.4 km) NNE. Retrieved 2019/07/21 14:00 UTC (5 hours ago):

TAF CYVV 211338Z 2114/2123 27008KT P6SM FEW100 FEW250 BECMG 2114/2116 28010KT RMK NXT FCST BY 212000Z